createdAt,value
2022-10-02T00:00:59.374Z,70.33
2022-10-02T00:01:59.426Z,70.43
2022-10-02T00:02:59.372Z,70.43
2022-10-02T00:03:59.431Z,70.65
2022-10-02T00:04:59.363Z,70.62
2022-10-02T00:05:59.375Z,70.65
2022-10-02T00:06:59.365Z,70.52
2022-10-02T00:07:59.360Z,70.43
2022-10-02T00:08:59.354Z,70.52
2022-10-02T00:09:59.356Z,70.56
2022-10-02T00:10:59.365Z,70.62
2022-10-02T00:11:59.349Z,70.56
2022-10-02T00:12:59.349Z,70.52
2022-10-02T00:13:59.349Z,70.56
2022-10-02T00:14:59.349Z,70.65
2022-10-02T00:15:59.418Z,70.52
2022-10-02T00:16:59.469Z,70.62
2022-10-02T00:17:59.346Z,70.52
2022-10-02T00:18:59.332Z,70.62
2022-10-02T00:19:59.343Z,70.52
2022-10-02T00:20:59.344Z,70.62
2022-10-02T00:21:59.331Z,70.52
2022-10-02T00:22:59.322Z,70.62
2022-10-02T00:23:59.326Z,70.52
2022-10-02T00:24:59.314Z,70.52
2022-10-02T00:25:59.318Z,70.52
2022-10-02T00:26:59.332Z,70.52
2022-10-02T00:27:59.387Z,70.52
2022-10-02T00:28:59.309Z,70.62
2022-10-02T00:29:59.324Z,70.52
2022-10-02T00:30:59.302Z,70.62
2022-10-02T00:31:59.464Z,70.52
2022-10-02T00:32:59.298Z,70.52
2022-10-02T00:33:59.294Z,70.62
2022-10-02T00:34:59.298Z,70.52
2022-10-02T00:35:59.292Z,70.52
2022-10-02T00:36:59.290Z,70.52
2022-10-02T00:37:59.287Z,70.62
2022-10-02T00:38:59.282Z,70.33
2022-10-02T00:39:59.283Z,70.52
2022-10-02T00:40:59.284Z,70.62
2022-10-02T00:41:59.282Z,70.52
2022-10-02T00:42:59.308Z,70.62
2022-10-02T00:43:59.282Z,70.62
2022-10-02T00:44:59.276Z,70.52
2022-10-02T00:45:59.322Z,70.62
2022-10-02T00:46:59.274Z,70.62
2022-10-02T00:47:59.266Z,70.81
2022-10-02T00:48:59.270Z,70.62
2022-10-02T00:49:59.267Z,70.43
2022-10-02T00:50:59.253Z,70.43
2022-10-02T00:51:59.262Z,70.62
2022-10-02T00:52:59.263Z,70.62
2022-10-02T00:53:59.248Z,70.52
2022-10-02T00:54:59.252Z,70.52
2022-10-02T00:55:59.246Z,70.43
2022-10-02T00:56:59.247Z,70.43
2022-10-02T00:57:59.240Z,70.43
2022-10-02T00:58:59.266Z,70.62
2022-10-02T00:59:59.240Z,70.52
2022-10-02T01:00:59.305Z,70.62
2022-10-02T01:01:59.291Z,70.52
2022-10-02T01:02:59.233Z,70.62
2022-10-02T01:03:59.237Z,70.43
2022-10-02T01:04:59.226Z,70.43
2022-10-02T01:05:59.218Z,70.81
2022-10-02T01:06:59.235Z,70.72
2022-10-02T01:07:59.225Z,70.62
2022-10-02T01:08:59.214Z,70.62
2022-10-02T01:09:59.215Z,70.62
2022-10-02T01:10:59.227Z,70.52
2022-10-02T01:11:59.224Z,70.52
2022-10-02T01:12:59.208Z,70.72
2022-10-02T01:13:59.209Z,70.62
2022-10-02T01:14:59.219Z,70.62
2022-10-02T01:15:59.252Z,70.72
2022-10-02T01:16:59.251Z,70.62
2022-10-02T01:17:59.203Z,70.43
2022-10-02T01:18:59.193Z,70.43
2022-10-02T01:19:59.188Z,70.81
2022-10-02T01:20:59.193Z,70.43
2022-10-02T01:21:59.195Z,70.72
2022-10-02T01:22:59.185Z,70.72
2022-10-02T01:23:59.178Z,70.72
2022-10-02T01:24:59.177Z,70.62
2022-10-02T01:25:59.181Z,70.62
2022-10-02T01:26:59.182Z,70.43
2022-10-02T01:27:59.250Z,70.33
2022-10-02T01:28:59.176Z,70.62
2022-10-02T01:29:59.180Z,70.62
2022-10-02T01:30:59.194Z,70.81
2022-10-02T01:31:59.204Z,70.52
2022-10-02T01:32:59.168Z,70.62
2022-10-02T01:33:59.174Z,70.62
2022-10-02T01:34:59.158Z,70.52
2022-10-02T01:35:59.158Z,70.52
2022-10-02T01:36:59.155Z,70.72
2022-10-02T01:37:59.155Z,70.52
2022-10-02T01:38:59.156Z,70.81
2022-10-02T01:39:59.145Z,70.81
2022-10-02T01:40:59.139Z,70.33
2022-10-02T01:41:59.145Z,70.52
2022-10-02T01:42:59.136Z,70.62
2022-10-02T01:43:59.238Z,70.62
2022-10-02T01:44:59.128Z,70.33
2022-10-02T01:45:59.204Z,70.72
2022-10-02T01:46:59.155Z,70.81
2022-10-02T01:47:59.124Z,70.62
2022-10-02T01:48:59.126Z,70.62
2022-10-02T01:49:59.120Z,70.52
2022-10-02T01:50:59.122Z,70.62
2022-10-02T01:51:59.110Z,70.52
2022-10-02T01:52:59.116Z,70.52
2022-10-02T01:53:59.111Z,70.52
2022-10-02T01:54:59.127Z,70.52
2022-10-02T01:55:59.107Z,70.52
2022-10-02T01:56:59.107Z,70.33
2022-10-02T01:57:59.105Z,70.43
2022-10-02T01:58:59.103Z,70.14
2022-10-02T01:59:59.107Z,70.43
2022-10-02T02:00:59.165Z,70.72
2022-10-02T02:01:59.177Z,70.62
2022-10-02T02:02:59.109Z,70.33
2022-10-02T02:03:59.089Z,70.62
2022-10-02T02:04:59.095Z,70.72
2022-10-02T02:05:59.096Z,70.52
2022-10-02T02:06:59.073Z,70.43
2022-10-02T02:07:59.073Z,70.62
2022-10-02T02:09:01.870Z,70.23
2022-10-02T02:09:59.075Z,70.33
2022-10-02T02:10:59.076Z,70.33
2022-10-02T02:11:59.076Z,70.43
2022-10-02T02:12:59.057Z,70.43
2022-10-02T02:13:59.071Z,70.33
2022-10-02T02:14:59.061Z,70.33
2022-10-02T02:15:59.101Z,70.33
2022-10-02T02:16:59.088Z,70.33
2022-10-02T02:17:59.064Z,70.23
2022-10-02T02:18:59.091Z,70.43
2022-10-02T02:19:59.055Z,70.43
2022-10-02T02:20:59.044Z,70.23
2022-10-02T02:21:59.051Z,70.23
2022-10-02T02:22:59.037Z,70.33
2022-10-02T02:23:59.035Z,70.43
2022-10-02T02:24:59.035Z,70.23
2022-10-02T02:25:59.042Z,70.62
2022-10-02T02:26:59.032Z,70.52
2022-10-02T02:27:59.071Z,70.23
2022-10-02T02:28:59.033Z,70.23
2022-10-02T02:29:59.019Z,70.52
2022-10-02T02:30:59.026Z,70.43
2022-10-02T02:31:59.067Z,70.43
2022-10-02T02:32:59.021Z,70.52
2022-10-02T02:33:59.020Z,70.43
2022-10-02T02:34:59.031Z,70.52
2022-10-02T02:35:59.014Z,70.52
2022-10-02T02:36:59.012Z,70.52
2022-10-02T02:37:59.017Z,70.23
2022-10-02T02:38:59.000Z,70.23
2022-10-02T02:39:59.002Z,70.23
2022-10-02T02:40:59.011Z,70.62
2022-10-02T02:41:58.992Z,70.52
2022-10-02T02:42:58.992Z,70.52
2022-10-02T02:43:59.004Z,70.52
2022-10-02T02:44:58.985Z,70.23
2022-10-02T02:45:59.033Z,70.33
2022-10-02T02:46:58.994Z,70.52
2022-10-02T02:47:58.987Z,70.52
2022-10-02T02:48:58.989Z,70.52
2022-10-02T02:49:58.971Z,70.23
2022-10-02T02:50:58.993Z,70.52
2022-10-02T02:51:58.983Z,70.43
2022-10-02T02:52:58.965Z,70.52
2022-10-02T02:53:58.966Z,70.52
2022-10-02T02:54:58.969Z,70.52
2022-10-02T02:55:58.965Z,70.43
2022-10-02T02:56:58.961Z,70.23
2022-10-02T02:57:58.961Z,70.33
2022-10-02T02:58:58.965Z,70.43
2022-10-02T02:59:58.959Z,70.52
2022-10-02T03:00:59.023Z,70.43
2022-10-02T03:01:58.974Z,70.62
2022-10-02T03:02:58.946Z,70.43
2022-10-02T03:03:58.950Z,70.43
2022-10-02T03:04:58.944Z,70.81
2022-10-02T03:05:58.943Z,70.72
2022-10-02T03:06:58.954Z,70.81
2022-10-02T03:07:58.940Z,70.52
2022-10-02T03:08:58.935Z,70.62
2022-10-02T03:09:58.932Z,70.72
2022-10-02T03:10:58.926Z,70.62
2022-10-02T03:11:58.933Z,70.62
2022-10-02T03:12:58.918Z,69.95
2022-10-02T03:13:58.922Z,70.72
2022-10-02T03:14:58.933Z,70.43
2022-10-02T03:15:59.016Z,70.72
2022-10-02T03:16:58.905Z,70.72
2022-10-02T03:17:58.907Z,70.72
2022-10-02T03:18:58.903Z,70.62
2022-10-02T03:19:58.913Z,70.72
2022-10-02T03:20:58.912Z,70.72
2022-10-02T03:21:58.904Z,70.33
2022-10-02T03:22:58.910Z,69.95
2022-10-02T03:23:58.891Z,70.62
2022-10-02T03:24:58.887Z,70.72
2022-10-02T03:25:58.897Z,70.62
2022-10-02T03:26:58.894Z,70.62
2022-10-02T03:27:58.926Z,70.72
2022-10-02T03:28:58.923Z,70.62
2022-10-02T03:29:58.883Z,70.72
2022-10-02T03:30:58.883Z,70.33
2022-10-02T03:31:58.888Z,69.85
2022-10-02T03:32:58.872Z,70.14
2022-10-02T03:33:58.876Z,70.52
2022-10-02T03:34:58.871Z,70.14
2022-10-02T03:35:59.929Z,70.14
2022-10-02T03:36:58.862Z,70.04
2022-10-02T03:37:58.869Z,69.95
2022-10-02T03:39:23.082Z,69.95
2022-10-02T03:39:58.861Z,69.95
2022-10-02T03:40:58.858Z,69.85
2022-10-02T03:41:58.846Z,70.23
2022-10-02T03:42:58.856Z,70.33
2022-10-02T03:43:58.842Z,69.95
2022-10-02T03:44:58.856Z,70.04
2022-10-02T03:45:58.882Z,70.14
2022-10-02T03:46:58.944Z,70.33
2022-10-02T03:47:58.834Z,70.33
2022-10-02T03:48:58.831Z,70.33
2022-10-02T03:49:58.832Z,70.04
2022-10-02T03:50:58.832Z,70.33
2022-10-02T03:51:58.837Z,69.95
2022-10-02T03:52:58.833Z,70.04
2022-10-02T03:53:58.828Z,70.23
2022-10-02T03:54:58.838Z,70.33
2022-10-02T03:55:58.824Z,70.04
2022-10-02T03:56:58.810Z,70.04
2022-10-02T03:57:58.823Z,70.23
2022-10-02T03:58:58.818Z,70.04
2022-10-02T03:59:58.802Z,69.95
2022-10-02T04:00:58.803Z,70.14
2022-10-02T04:01:58.835Z,70.04
2022-10-02T04:02:58.803Z,69.95
2022-10-02T04:03:58.889Z,69.95
2022-10-02T04:04:58.801Z,70.04
2022-10-02T04:05:58.801Z,69.95
2022-10-02T04:06:58.801Z,69.95
2022-10-02T04:07:58.786Z,70.04
2022-10-02T04:08:58.791Z,69.95
2022-10-02T04:09:58.798Z,70.23
2022-10-02T04:10:58.799Z,70.04
2022-10-02T04:11:58.793Z,70.04
2022-10-02T04:12:58.786Z,69.95
2022-10-02T04:13:58.785Z,70.04
2022-10-02T04:14:58.776Z,69.95
2022-10-02T04:15:58.782Z,70.23
2022-10-02T04:16:58.764Z,69.56
2022-10-02T04:17:59.205Z,69.95
2022-10-02T04:18:58.763Z,70.04
2022-10-02T04:19:58.756Z,69.85
2022-10-02T04:20:58.757Z,69.85
2022-10-02T04:21:58.757Z,70.04
2022-10-02T04:22:58.756Z,70.04
2022-10-02T04:23:58.758Z,69.85
2022-10-02T04:24:58.749Z,69.75
2022-10-02T04:25:58.741Z,69.95
2022-10-02T04:26:58.769Z,70.04
2022-10-02T04:27:58.806Z,69.46
2022-10-02T04:28:58.736Z,69.46
2022-10-02T04:29:58.748Z,69.95
2022-10-02T04:30:58.737Z,69.95
2022-10-02T04:31:58.838Z,69.46
2022-10-02T04:32:58.724Z,69.46
2022-10-02T04:33:58.733Z,69.95
2022-10-02T04:34:58.741Z,69.95
2022-10-02T04:35:58.739Z,69.85
2022-10-02T04:36:58.723Z,69.85
2022-10-02T04:37:58.720Z,69.37
2022-10-02T04:38:58.708Z,69.85
2022-10-02T04:39:58.717Z,69.46
2022-10-02T04:40:58.710Z,69.37
2022-10-02T04:41:58.707Z,69.37
2022-10-02T04:42:58.718Z,69.37
2022-10-02T04:43:58.705Z,69.75
2022-10-02T04:44:58.703Z,69.85
2022-10-02T04:45:58.770Z,69.75
2022-10-02T04:46:58.709Z,69.46
2022-10-02T04:47:58.695Z,69.37
2022-10-02T04:48:58.692Z,69.85
2022-10-02T04:49:58.686Z,69.85
2022-10-02T04:50:58.681Z,69.37
2022-10-02T04:51:58.699Z,69.66
2022-10-02T04:52:58.682Z,69.85
2022-10-02T04:53:58.681Z,69.75
2022-10-02T04:54:58.676Z,69.66
2022-10-02T04:55:58.683Z,69.85
2022-10-02T04:56:58.670Z,69.66
2022-10-02T04:57:58.672Z,69.66
2022-10-02T04:58:58.684Z,69.66
2022-10-02T04:59:58.677Z,69.95
2022-10-02T05:00:58.736Z,69.95
2022-10-02T05:01:58.737Z,69.66
2022-10-02T05:02:58.666Z,69.66
2022-10-02T05:04:03.184Z,69.85
2022-10-02T05:04:58.646Z,69.85
2022-10-02T05:05:58.652Z,69.85
2022-10-02T05:06:58.648Z,69.95
2022-10-02T05:07:58.653Z,69.85
2022-10-02T05:08:58.636Z,69.95
2022-10-02T05:09:58.648Z,69.85
2022-10-02T05:10:58.631Z,69.85
2022-10-02T05:11:58.635Z,69.85
2022-10-02T05:12:58.634Z,69.56
2022-10-02T05:13:58.637Z,69.85
2022-10-02T05:14:58.648Z,69.95
2022-10-02T05:15:58.686Z,69.85
2022-10-02T05:16:58.620Z,69.85
2022-10-02T05:17:58.622Z,69.85
2022-10-02T05:18:58.620Z,69.85
2022-10-02T05:19:58.619Z,69.95
2022-10-02T05:20:58.619Z,69.95
2022-10-02T05:21:58.605Z,69.95
2022-10-02T05:22:58.601Z,69.95
2022-10-02T05:23:58.611Z,69.85
2022-10-02T05:24:58.593Z,69.85
2022-10-02T05:25:58.600Z,69.75
2022-10-02T05:26:58.603Z,69.75
2022-10-02T05:27:58.763Z,69.95
2022-10-02T05:28:58.590Z,69.85
2022-10-02T05:29:58.587Z,70.04
2022-10-02T05:30:58.635Z,69.75
2022-10-02T05:31:58.595Z,70.04
2022-10-02T05:32:58.595Z,69.75
2022-10-02T05:33:58.578Z,69.85
2022-10-02T05:34:58.576Z,70.04
2022-10-02T05:35:58.570Z,70.04
2022-10-02T05:36:58.584Z,69.85
2022-10-02T05:37:58.574Z,69.85
2022-10-02T05:38:58.575Z,69.75
2022-10-02T05:39:58.576Z,69.95
2022-10-02T05:40:58.565Z,69.75
2022-10-02T05:41:58.574Z,69.75
2022-10-02T05:42:58.553Z,69.75
2022-10-02T05:43:58.564Z,69.75
2022-10-02T05:44:58.552Z,69.95
2022-10-02T05:45:58.550Z,69.95
2022-10-02T05:46:58.657Z,69.75
2022-10-02T05:47:58.551Z,69.85
2022-10-02T05:48:58.543Z,69.75
2022-10-02T05:49:58.549Z,69.85
2022-10-02T05:50:58.538Z,69.75
2022-10-02T05:51:58.533Z,70.04
2022-10-02T05:52:58.535Z,69.85
2022-10-02T05:53:58.531Z,69.85
2022-10-02T05:54:58.541Z,69.95
2022-10-02T05:55:58.524Z,69.95
2022-10-02T05:56:58.528Z,69.85
2022-10-02T05:57:58.526Z,69.95
2022-10-02T05:58:58.529Z,69.75
2022-10-02T05:59:58.524Z,69.75
2022-10-02T06:00:58.603Z,69.95
2022-10-02T06:01:58.546Z,69.85
2022-10-02T06:02:58.529Z,69.95
2022-10-02T06:03:58.514Z,69.95
2022-10-02T06:04:58.496Z,69.75
2022-10-02T06:05:58.507Z,69.95
2022-10-02T06:06:58.504Z,70.04
2022-10-02T06:07:58.496Z,69.85
2022-10-02T06:08:58.522Z,69.85
2022-10-02T06:09:58.493Z,70.04
2022-10-02T06:10:58.502Z,69.85
2022-10-02T06:11:58.501Z,69.75
2022-10-02T06:12:58.485Z,70.04
2022-10-02T06:13:58.487Z,69.95
2022-10-02T06:14:58.486Z,69.75
2022-10-02T06:15:58.543Z,69.85
2022-10-02T06:16:58.481Z,69.75
2022-10-02T06:17:58.472Z,69.95
2022-10-02T06:18:58.586Z,69.75
2022-10-02T06:20:03.032Z,69.85
2022-10-02T06:20:58.473Z,70.04
2022-10-02T06:21:58.481Z,69.85
2022-10-02T06:22:58.469Z,69.85
2022-10-02T06:23:58.455Z,70.04
2022-10-02T06:24:58.458Z,70.04
2022-10-02T06:25:58.453Z,70.04
2022-10-02T06:26:58.453Z,69.75
2022-10-02T06:27:58.512Z,70.04
2022-10-02T06:28:58.448Z,69.85
2022-10-02T06:29:58.445Z,70.04
2022-10-02T06:30:58.438Z,70.04
2022-10-02T06:31:58.516Z,70.04
2022-10-02T06:32:58.437Z,70.04
2022-10-02T06:33:58.426Z,70.04
2022-10-02T06:34:58.452Z,70.04
2022-10-02T06:35:58.433Z,69.75
2022-10-02T06:36:58.422Z,70.14
2022-10-02T06:37:58.428Z,70.04
2022-10-02T06:38:58.433Z,69.75
2022-10-02T06:39:58.424Z,69.75
2022-10-02T06:40:58.417Z,69.85
2022-10-02T06:41:58.422Z,70.04
2022-10-02T06:42:58.423Z,69.85
2022-10-02T06:43:58.412Z,69.95
2022-10-02T06:44:58.402Z,69.95
2022-10-02T06:45:58.509Z,69.75
2022-10-02T06:46:58.410Z,69.95
2022-10-02T06:47:58.394Z,70.04
2022-10-02T06:48:58.399Z,70.04
2022-10-02T06:49:58.397Z,69.85
2022-10-02T06:50:58.406Z,70.04
2022-10-02T06:51:58.387Z,70.04
2022-10-02T06:52:58.386Z,69.85
2022-10-02T06:53:58.387Z,70.04
2022-10-02T06:54:58.396Z,70.14
2022-10-02T06:55:58.387Z,70.04
2022-10-02T06:56:58.371Z,69.85
2022-10-02T06:57:58.376Z,69.85
2022-10-02T06:58:58.375Z,70.04
2022-10-02T06:59:58.378Z,70.04
2022-10-02T07:00:58.461Z,70.04
2022-10-02T07:01:58.395Z,70.04
2022-10-02T07:02:58.364Z,70.23
2022-10-02T07:03:58.365Z,69.95
2022-10-02T07:04:58.375Z,70.04
2022-10-02T07:05:58.393Z,69.75
2022-10-02T07:06:58.368Z,70.23
2022-10-02T07:07:58.346Z,69.75
2022-10-02T07:08:58.350Z,70.14
2022-10-02T07:09:58.342Z,70.04
2022-10-02T07:10:58.345Z,70.14
2022-10-02T07:11:58.344Z,69.66
2022-10-02T07:12:58.353Z,69.75
2022-10-02T07:13:58.336Z,69.66
2022-10-02T07:14:58.344Z,70.04
2022-10-02T07:15:58.385Z,69.95
2022-10-02T07:16:58.349Z,69.66
2022-10-02T07:17:58.335Z,69.95
2022-10-02T07:18:58.328Z,69.66
2022-10-02T07:19:58.328Z,70.04
2022-10-02T07:20:58.326Z,70.04
2022-10-02T07:21:58.326Z,69.95
2022-10-02T07:22:58.347Z,70.04
2022-10-02T07:24:02.229Z,69.95
2022-10-02T07:24:58.316Z,69.85
2022-10-02T07:25:58.324Z,70.04
2022-10-02T07:26:58.318Z,69.85
2022-10-02T07:27:58.384Z,69.85
2022-10-02T07:28:58.297Z,69.85
2022-10-02T07:29:58.302Z,69.85
2022-10-02T07:30:58.296Z,69.85
2022-10-02T07:31:58.380Z,69.95
2022-10-02T07:32:58.313Z,69.85
2022-10-02T07:33:58.291Z,70.04
2022-10-02T07:34:58.290Z,69.85
2022-10-02T07:35:58.285Z,69.85
2022-10-02T07:36:58.279Z,69.85
2022-10-02T07:37:58.276Z,70.04
2022-10-02T07:38:58.402Z,70.04
2022-10-02T07:39:58.269Z,70.04
2022-10-02T07:41:00.117Z,70.04
2022-10-02T07:41:58.270Z,69.85
2022-10-02T07:42:58.265Z,70.14
2022-10-02T07:43:58.280Z,69.95
2022-10-02T07:44:58.275Z,70.04
2022-10-02T07:45:58.343Z,70.04
2022-10-02T07:46:58.265Z,70.04
2022-10-02T07:47:58.265Z,70.04
2022-10-02T07:48:58.279Z,69.85
2022-10-02T07:49:58.257Z,69.95
2022-10-02T07:50:58.253Z,69.85
2022-10-02T07:51:58.246Z,70.04
2022-10-02T07:52:58.249Z,70.04
2022-10-02T07:53:58.243Z,69.95
2022-10-02T07:54:58.255Z,70.04
2022-10-02T07:55:58.245Z,70.04
2022-10-02T07:56:58.238Z,69.95
2022-10-02T07:57:58.235Z,70.14
2022-10-02T07:58:58.234Z,69.66
2022-10-02T07:59:58.222Z,69.75
2022-10-02T08:00:58.243Z,69.85
2022-10-02T08:01:58.278Z,69.75
2022-10-02T08:02:58.316Z,69.85
2022-10-02T08:03:58.234Z,69.37
2022-10-02T08:04:58.225Z,69.50
2022-10-02T08:05:58.216Z,69.46
2022-10-02T08:06:58.217Z,69.60
2022-10-02T08:07:58.209Z,69.46
2022-10-02T08:08:58.219Z,69.50
2022-10-02T08:09:58.202Z,69.12
2022-10-02T08:10:58.222Z,68.92
2022-10-02T08:11:58.204Z,69.12
2022-10-02T08:12:58.193Z,69.40
2022-10-02T08:13:58.197Z,69.02
2022-10-02T08:14:58.201Z,69.02
2022-10-02T08:15:58.311Z,68.92
2022-10-02T08:16:58.190Z,68.63
2022-10-02T08:18:10.788Z,68.92
2022-10-02T08:18:58.187Z,69.02
2022-10-02T08:19:58.195Z,69.31
2022-10-02T08:20:58.177Z,69.12
2022-10-02T08:21:58.183Z,68.83
2022-10-02T08:22:58.175Z,69.15
2022-10-02T08:23:58.183Z,68.73
2022-10-02T08:24:58.168Z,68.96
2022-10-02T08:25:58.173Z,68.63
2022-10-02T08:26:58.206Z,68.83
2022-10-02T08:27:58.233Z,68.67
2022-10-02T08:28:58.168Z,68.86
2022-10-02T08:29:58.169Z,68.48
2022-10-02T08:30:58.173Z,68.48
2022-10-02T08:31:58.249Z,68.67
2022-10-02T08:32:58.184Z,68.67
2022-10-02T08:33:58.161Z,68.38
2022-10-02T08:34:58.156Z,68.48
2022-10-02T08:35:58.159Z,68.38
2022-10-02T08:36:58.155Z,68.48
2022-10-02T08:37:58.155Z,68.19
2022-10-02T08:38:58.162Z,67.99
2022-10-02T08:39:58.156Z,68.29
2022-10-02T08:40:58.147Z,68.38
2022-10-02T08:41:58.153Z,68.29
2022-10-02T08:42:58.171Z,68.29
2022-10-02T08:43:58.156Z,68.29
2022-10-02T08:44:58.168Z,68.29
2022-10-02T08:45:58.204Z,68.57
2022-10-02T08:46:58.141Z,68.48
2022-10-02T08:47:58.132Z,67.80
2022-10-02T08:48:58.132Z,68.41
2022-10-02T08:49:58.141Z,67.80
2022-10-02T08:50:58.138Z,67.83
2022-10-02T08:51:58.147Z,67.80
2022-10-02T08:52:58.131Z,68.32
2022-10-02T08:53:58.136Z,68.41
2022-10-02T08:54:58.142Z,68.41
2022-10-02T08:55:58.136Z,68.41
2022-10-02T08:56:58.146Z,68.41
2022-10-02T08:57:58.119Z,68.22
2022-10-02T08:58:58.146Z,68.32
2022-10-02T08:59:58.133Z,68.51
2022-10-02T09:00:58.148Z,68.32
2022-10-02T09:02:00.066Z,68.51
2022-10-02T09:02:58.128Z,68.60
2022-10-02T09:03:58.118Z,68.51
2022-10-02T09:04:58.119Z,68.41
2022-10-02T09:05:58.122Z,68.41
2022-10-02T09:06:58.130Z,68.96
2022-10-02T09:07:58.124Z,68.76
2022-10-02T09:08:58.129Z,69.50
2022-10-02T09:09:58.122Z,70.07
2022-10-02T09:10:58.106Z,70.56
2022-10-02T09:11:58.111Z,70.75
2022-10-02T09:12:58.111Z,71.04
2022-10-02T09:13:58.096Z,71.19
2022-10-02T09:14:59.060Z,71.29
2022-10-02T09:15:58.153Z,71.67
2022-10-02T09:16:58.101Z,71.96
2022-10-02T09:17:58.099Z,71.67
2022-10-02T09:18:58.082Z,72.22
2022-10-02T09:19:58.082Z,72.02
2022-10-02T09:20:58.074Z,72.60
2022-10-02T09:21:58.086Z,72.60
2022-10-02T09:22:58.079Z,72.22
2022-10-02T09:23:58.072Z,72.31
2022-10-02T09:24:58.074Z,72.60
2022-10-02T09:25:58.060Z,72.69
2022-10-02T09:26:58.063Z,72.89
2022-10-02T09:27:58.119Z,72.60
2022-10-02T09:28:58.077Z,72.50
2022-10-02T09:29:58.050Z,72.50
2022-10-02T09:30:58.074Z,72.41
2022-10-02T09:31:58.089Z,72.41
2022-10-02T09:32:58.095Z,72.37
2022-10-02T09:33:58.036Z,72.28
2022-10-02T09:34:58.032Z,73.04
2022-10-02T09:35:58.024Z,72.66
2022-10-02T09:36:58.029Z,72.75
2022-10-02T09:37:58.024Z,72.47
2022-10-02T09:38:58.009Z,72.56
2022-10-02T09:39:58.019Z,72.56
2022-10-02T09:40:58.009Z,72.66
2022-10-02T09:41:58.005Z,72.56
2022-10-02T09:42:58.005Z,72.66
2022-10-02T09:43:57.992Z,72.75
2022-10-02T09:45:01.196Z,72.85
2022-10-02T09:45:58.069Z,72.56
2022-10-02T09:46:58.004Z,73.14
2022-10-02T09:47:57.967Z,72.56
2022-10-02T09:48:57.969Z,72.56
2022-10-02T09:49:57.970Z,72.85
2022-10-02T09:50:57.974Z,72.95
2022-10-02T09:51:57.972Z,73.04
2022-10-02T09:52:57.949Z,73.04
2022-10-02T09:53:57.944Z,72.47
2022-10-02T09:54:57.958Z,72.56
2022-10-02T09:55:57.952Z,72.47
2022-10-02T09:56:57.933Z,72.66
2022-10-02T09:57:57.922Z,72.56
2022-10-02T09:58:57.934Z,72.56
2022-10-02T09:59:57.920Z,72.47
2022-10-02T10:00:58.029Z,72.18
2022-10-02T10:01:57.948Z,71.80
2022-10-02T10:02:57.935Z,71.73
2022-10-02T10:03:57.902Z,71.51
2022-10-02T10:05:06.562Z,71.45
2022-10-02T10:05:57.887Z,71.45
2022-10-02T10:06:57.891Z,71.16
2022-10-02T10:07:57.891Z,71.45
2022-10-02T10:08:57.884Z,71.55
2022-10-02T10:09:57.890Z,70.97
2022-10-02T10:10:57.875Z,70.97
2022-10-02T10:11:57.866Z,70.87
2022-10-02T10:12:57.865Z,70.68
2022-10-02T10:13:57.864Z,70.81
2022-10-02T10:14:57.856Z,70.90
2022-10-02T10:15:57.847Z,70.33
2022-10-02T10:16:57.846Z,70.52
2022-10-02T10:17:57.848Z,70.43
2022-10-02T10:18:57.862Z,70.62
2022-10-02T10:19:57.841Z,70.23
2022-10-02T10:20:57.839Z,70.23
2022-10-02T10:21:57.837Z,70.52
2022-10-02T10:22:57.829Z,70.33
2022-10-02T10:23:57.820Z,70.72
2022-10-02T10:24:57.823Z,70.33
2022-10-02T10:25:57.815Z,70.33
2022-10-02T10:26:57.818Z,70.04
2022-10-02T10:27:57.870Z,69.95
2022-10-02T10:28:57.887Z,69.46
2022-10-02T10:29:57.809Z,69.46
2022-10-02T10:30:57.804Z,69.85
2022-10-02T10:31:57.922Z,69.85
2022-10-02T10:32:57.798Z,69.85
2022-10-02T10:33:57.788Z,69.95
2022-10-02T10:34:57.802Z,69.95
2022-10-02T10:35:57.788Z,69.85
2022-10-02T10:36:57.780Z,69.85
2022-10-02T10:37:57.789Z,69.85
2022-10-02T10:38:57.776Z,69.75
2022-10-02T10:39:57.777Z,69.85
2022-10-02T10:40:57.773Z,69.75
2022-10-02T10:41:57.783Z,70.04
2022-10-02T10:43:07.500Z,70.04
2022-10-02T10:43:57.766Z,70.04
2022-10-02T10:44:57.808Z,69.75
2022-10-02T10:45:57.769Z,70.04
2022-10-02T10:46:57.748Z,70.04
2022-10-02T10:47:57.829Z,69.95
2022-10-02T10:48:57.746Z,70.04
2022-10-02T10:49:57.741Z,70.04
2022-10-02T10:50:57.755Z,70.33
2022-10-02T10:51:57.792Z,70.23
2022-10-02T10:52:57.732Z,70.04
2022-10-02T10:54:01.727Z,70.04
2022-10-02T10:54:57.797Z,69.85
2022-10-02T10:55:57.783Z,70.04
2022-10-02T10:56:57.721Z,70.14
2022-10-02T10:57:57.718Z,69.75
2022-10-02T10:58:57.705Z,70.14
2022-10-02T10:59:57.708Z,69.85
2022-10-02T11:00:57.806Z,69.85
2022-10-02T11:01:57.747Z,70.23
2022-10-02T11:02:57.706Z,70.04
2022-10-02T11:03:57.699Z,70.04
2022-10-02T11:04:57.707Z,70.04
2022-10-02T11:05:57.693Z,70.04
2022-10-02T11:06:57.838Z,70.33
2022-10-02T11:07:57.691Z,69.95
2022-10-02T11:08:57.690Z,70.04
2022-10-02T11:09:57.761Z,70.23
2022-10-02T11:10:57.683Z,70.14
2022-10-02T11:11:57.727Z,69.85
2022-10-02T11:12:57.742Z,70.14
2022-10-02T11:13:57.672Z,70.23
2022-10-02T11:14:57.738Z,69.75
2022-10-02T11:15:57.651Z,70.04
2022-10-02T11:16:57.660Z,70.04
2022-10-02T11:17:57.652Z,69.85
2022-10-02T11:18:57.643Z,70.14
2022-10-02T11:19:57.655Z,69.85
2022-10-02T11:20:57.649Z,69.85
2022-10-02T11:21:57.646Z,69.85
2022-10-02T11:22:57.655Z,69.95
2022-10-02T11:23:57.647Z,69.95
2022-10-02T11:24:57.695Z,69.85
2022-10-02T11:25:57.638Z,70.04
2022-10-02T11:26:57.683Z,69.95
2022-10-02T11:27:57.762Z,69.85
2022-10-02T11:28:57.623Z,70.04
2022-10-02T11:29:57.620Z,69.95
2022-10-02T11:30:57.613Z,69.85
2022-10-02T11:31:57.647Z,69.85
2022-10-02T11:32:57.612Z,69.85
2022-10-02T11:33:57.598Z,69.85
2022-10-02T11:34:57.590Z,69.85
2022-10-02T11:35:57.616Z,70.04
2022-10-02T11:36:57.621Z,69.85
2022-10-02T11:38:01.732Z,69.85
2022-10-02T11:38:57.601Z,70.04
2022-10-02T11:39:57.574Z,69.85
2022-10-02T11:40:57.596Z,70.04
2022-10-02T11:41:57.589Z,70.04
2022-10-02T11:42:57.574Z,69.85
2022-10-02T11:43:57.564Z,69.85
2022-10-02T11:44:57.573Z,70.14
2022-10-02T11:45:57.621Z,70.04
2022-10-02T11:46:57.564Z,69.85
2022-10-02T11:47:57.547Z,69.66
2022-10-02T11:48:57.545Z,69.85
2022-10-02T11:49:57.553Z,69.95
2022-10-02T11:50:57.563Z,70.14
2022-10-02T11:51:57.565Z,69.75
2022-10-02T11:52:57.536Z,69.75
2022-10-02T11:53:57.539Z,69.85
2022-10-02T11:54:57.566Z,69.75
2022-10-02T11:55:57.541Z,69.56
2022-10-02T11:56:57.529Z,69.56
2022-10-02T11:57:57.515Z,69.56
2022-10-02T11:58:57.521Z,69.46
2022-10-02T11:59:57.517Z,69.46
2022-10-02T12:00:57.510Z,69.46
2022-10-02T12:01:57.588Z,69.46
2022-10-02T12:02:57.638Z,69.37
2022-10-02T12:03:57.529Z,69.46
2022-10-02T12:04:57.508Z,69.56
2022-10-02T12:05:57.504Z,69.46
2022-10-02T12:06:57.497Z,69.46
2022-10-02T12:07:57.508Z,69.37
2022-10-02T12:08:57.493Z,69.27
2022-10-02T12:09:57.491Z,69.37
2022-10-02T12:10:57.514Z,69.18
2022-10-02T12:11:57.496Z,68.89
2022-10-02T12:12:57.489Z,69.08
2022-10-02T12:13:57.478Z,69.18
2022-10-02T12:14:57.478Z,69.08
2022-10-02T12:15:57.476Z,69.18
2022-10-02T12:16:57.523Z,68.98
2022-10-02T12:17:57.476Z,68.89
2022-10-02T12:18:57.467Z,68.98
2022-10-02T12:19:57.465Z,69.08
2022-10-02T12:20:57.461Z,69.18
2022-10-02T12:21:57.461Z,69.08
2022-10-02T12:22:57.475Z,69.27
2022-10-02T12:23:57.457Z,69.08
2022-10-02T12:24:57.454Z,69.27
2022-10-02T12:25:57.450Z,69.18
2022-10-02T12:26:57.461Z,69.40
2022-10-02T12:27:57.490Z,69.40
2022-10-02T12:28:57.443Z,69.21
2022-10-02T12:29:57.437Z,69.27
2022-10-02T12:30:57.438Z,69.21
2022-10-02T12:31:57.476Z,69.27
2022-10-02T12:32:57.426Z,68.92
2022-10-02T12:33:57.447Z,68.83
2022-10-02T12:34:57.429Z,68.79
2022-10-02T12:35:57.427Z,69.08
2022-10-02T12:36:57.422Z,68.83
2022-10-02T12:37:57.426Z,69.08
2022-10-02T12:38:57.421Z,69.02
2022-10-02T12:39:57.419Z,69.02
2022-10-02T12:40:57.412Z,68.98
2022-10-02T12:41:57.418Z,69.02
2022-10-02T12:42:57.449Z,68.92
2022-10-02T12:43:57.426Z,69.02
2022-10-02T12:44:57.406Z,69.02
2022-10-02T12:45:57.440Z,68.79
2022-10-02T12:46:57.396Z,68.63
2022-10-02T12:47:57.394Z,69.02
2022-10-02T12:48:57.396Z,68.83
2022-10-02T12:49:57.402Z,68.83
2022-10-02T12:51:00.007Z,68.73
2022-10-02T12:51:57.384Z,68.73
2022-10-02T12:52:57.383Z,68.92